WetterOnline ( http://www.wetteronline.de )

Wetter aktuell Meiningen

Aktuelles Wetter: Meiningen (453m)

6-stündlich | Neueste Meldungen
Ortszeit Temperatur Wetter
Do, 20.09. 20:00 22.9° C wolkig
Do, 20.09. 14:00 26.0° C leicht bewölkt
Do, 20.09. 8:00 15.2° C wolkig
Do, 20.09. 2:00 15.9° C wolkig
Mi, 19.09. 20:00 23.9° C wolkig
Mi, 19.09. 14:00 25.2° C wolkenlos
Mi, 19.09. 8:00 14.6° C bewölkt
Mi, 19.09. 2:00 16.7° C bedeckt
Ortszeit Temperatur Wetter
Fr, 21.09. 1:30 15.4° C wolkig
Fr, 21.09. 1:10 15.7° C wolkig
Fr, 21.09. 1:00 15.9° C wolkig
Fr, 21.09. 0:50 15.9° C wolkig
Fr, 21.09. 0:40 16.1° C wolkig
Fr, 21.09. 0:30 15.7° C wolkig
Fr, 21.09. 0:00 17.3° C wolkig
Do, 20.09. 23:30 16.6° C leicht bewölkt
Do, 20.09. 23:00 17.4° C wolkig
Do, 20.09. 22:30 18.2° C wolkig
Ortszeit Relative Feuchte Sichtweite
Do, 20.09. 20:00 35% 50 km
Do, 20.09. 14:00 45% 14 km
Do, 20.09. 8:00 83% 26 km
Do, 20.09. 2:00 74% 35 km
Mi, 19.09. 20:00 46% 55 km
Mi, 19.09. 14:00 44% 14 km
Mi, 19.09. 8:00 79% 22 km
Mi, 19.09. 2:00 70% 30 km
Ortszeit Relative Feuchte Sichtweite
Fr, 21.09. 1:30 67% 30 km
Fr, 21.09. 1:10 66% -
Fr, 21.09. 1:00 66% 30 km
Fr, 21.09. 0:50 66% -
Fr, 21.09. 0:40 65% -
Fr, 21.09. 0:30 67% 40 km
Fr, 21.09. 0:00 60% 40 km
Do, 20.09. 23:30 62% 40 km
Do, 20.09. 23:00 57% 45 km
Do, 20.09. 22:30 54% 45 km
Ortszeit Niederschlagsmenge Niederschlagsart
Do, 20.09. 20:00 0.0 l/m2 in 12 Std. -
Do, 20.09. 14:00 0.0 l/m2 in 6 Std. -
Do, 20.09. 8:00 0.0 l/m2 in 12 Std. -
Do, 20.09. 2:00 0.0 l/m2 in 6 Std. -
Mi, 19.09. 20:00 0.0 l/m2 in 12 Std. -
Mi, 19.09. 14:00 0.0 l/m2 in 6 Std. -
Mi, 19.09. 8:00 0.0 l/m2 in 12 Std. -
Mi, 19.09. 2:00 0.0 l/m2 in 6 Std. -
Ortszeit Niederschlagsmenge Niederschlagsart
Fr, 21.09. 1:30 0.0 l/m2 in 1 Std. -
Fr, 21.09. 1:10 keine Meldung -
Fr, 21.09. 1:00 0.0 l/m2 in 1 Std. -
Fr, 21.09. 0:50 keine Meldung -
Fr, 21.09. 0:40 keine Meldung -
Fr, 21.09. 0:30 0.0 l/m2 in 1 Std. -
Fr, 21.09. 0:00 0.0 l/m2 in 1 Std. -
Do, 20.09. 23:30 0.0 l/m2 in 1 Std. -
Do, 20.09. 23:00 0.0 l/m2 in 1 Std. -
Do, 20.09. 22:30 0.0 l/m2 in 1 Std. -
Ortszeit Stärke Spitze Richtung
km/h Bft. km/h Grad Sektor
Do, 20.09. 20:00 7 2 40 220° SW
Do, 20.09. 14:00 19 3 37 180° S
Do, 20.09. 8:00 7 2 14 180° S
Do, 20.09. 2:00 11 2 14 160° S
Mi, 19.09. 20:00 9 2 39 200° S
Mi, 19.09. 14:00 18 3 36 200° S
Mi, 19.09. 8:00 7 2 14 170° S
Mi, 19.09. 2:00 6 1 13 170° S
Ortszeit Stärke Spitze Richtung
km/h Bft. km/h Grad Sektor
Fr, 21.09. 1:30 9 2 13 160° S
Fr, 21.09. 1:10 9 2 - 170° S
Fr, 21.09. 1:00 7 2 14 180° S
Fr, 21.09. 0:50 7 2 - 180° S
Fr, 21.09. 0:40 9 2 - 170° S
Fr, 21.09. 0:30 11 2 14 160° S
Fr, 21.09. 0:00 11 2 14 160° S
Do, 20.09. 23:30 11 2 14 160° S
Do, 20.09. 23:00 7 2 11 150° SO
Do, 20.09. 22:30 7 2 11 160° S
Ortszeit Untergrenze Bedeckung Gattung
total tief tief mittel hoch
Do, 20.09. 20:00 9000 m 7/8 0/8 - - -
Do, 20.09. 14:00 9000 m 7/8 0/8 - - -
Do, 20.09. 8:00 1800 m 8/8 3/8 - - -
Do, 20.09. 2:00 10500 m 7/8 0/8 - - -
Mi, 19.09. 20:00 10500 m 8/8 0/8 - - -
Mi, 19.09. 14:00 - 0/8 0/8 - - -
Mi, 19.09. 8:00 3000 m 7/8 7/8 - - -
Mi, 19.09. 2:00 5400 m 8/8 8/8 - - -
Ortszeit Bedeckungsgrad in Achtel und Wolkenuntergrenze
Fr, 21.09. 1:30 8(9000m) 8(10500m)
Fr, 21.09. 1:10 8(9000m) 8(10500m)
Fr, 21.09. 1:00 6(9000m) 7(10500m) 8(10500m)
Fr, 21.09. 0:50 6(9000m) 7(10500m) 8(10500m)
Fr, 21.09. 0:40 5(9000m) 5(10500m) 8(10500m)
Fr, 21.09. 0:30 5(9000m) 8(9000m) 8(10500m)
Fr, 21.09. 0:00 5(9000m) 7(10500m)
Do, 20.09. 23:30 1(3300m) 3(9000m)
Do, 20.09. 23:00 2(9000m) 5(9000m) 7(10500m)
Do, 20.09. 22:30 5(9000m) 8(10500m)
Ortszeit Luftdruck NN (hPa) Tendenz (hPa in 3 Std.)
Do, 20.09. 20:00 1015 - 0,8
Do, 20.09. 14:00 1017 - 1,8
Do, 20.09. 8:00 1020 + 0,4
Do, 20.09. 2:00 1020 + 0,1
Mi, 19.09. 20:00 1018 + 0,1
Mi, 19.09. 14:00 1019 - 0,5
Mi, 19.09. 8:00 1020 + 1,3
Mi, 19.09. 2:00 1017 + 0,5
Ortszeit Luftdruck NN (hPa) Tendenz (hPa in 3 Std.)
Fr, 21.09. 1:30 1014 - 1,5
Fr, 21.09. 1:10 1014 keine Meldung
Fr, 21.09. 1:00 1015 - 1,4
Fr, 21.09. 0:50 1015 keine Meldung
Fr, 21.09. 0:40 1015 keine Meldung
Fr, 21.09. 0:30 1015 - 1,1
Fr, 21.09. 0:00 1015 - 1,1
Do, 20.09. 23:30 1015 - 0,8
Do, 20.09. 23:00 1015 - 0,7
Do, 20.09. 22:30 1016 - 0,4
Ortszeit Schneehöhe (cm)
Do, 20.09. 20:00 -
Do, 20.09. 14:00 -
Do, 20.09. 8:00 -
Do, 20.09. 2:00 -
Mi, 19.09. 20:00 -
Mi, 19.09. 14:00 -
Mi, 19.09. 8:00 -
Mi, 19.09. 2:00 -
Ortszeit Schneehöhe (cm)
Fr, 21.09. 1:30 -
Fr, 21.09. 1:10 -
Fr, 21.09. 1:00 -
Fr, 21.09. 0:50 -
Fr, 21.09. 0:40 -
Fr, 21.09. 0:30 -
Fr, 21.09. 0:00 -
Do, 20.09. 23:30 -
Do, 20.09. 23:00 -
Do, 20.09. 22:30 -
Link zu dieser Seite / Seite empfehlen

Das Wetter in ...